Airfield :
LOGIN :

Register | Disclaimer

   EN    FR    IT 

 










Legend :    VFR   Marginal VFR   IFR   Intensive IFR   Very Intensive IFR
Visi :
Ceiling :
>= 8 km
>= 3000ft
5 to 8 km
1000 to 3000 ft
1500m to 5 km
500 to 1000 ft
800 to 1500m
200 to 500 ft
< 800m
< 200 ft
Symbols :   Thunderstorms  Fog  Heavy snow  Heavy precipitations  Wind > 20 kt
SIGMETs :     Misc.  Thunderstorms  Icing  Turbulence  Mountain Waves  Volcanic Ashes







- Airport Elevation : 614 ft
- IATA code : CRL


EBCI - Charleroi

CURRENT METAR :
  • 212220Z VRB01KT CAVOK 15/14 Q1012 NOSIG

EXPIRED METARs :
  • 212150Z VRB01KT CAVOK 17/14 Q1012 NOSIG
  • 212120Z 21003KT 9999 FEW033 17/14 Q1012 NOSIG
  • 212050Z VRB02KT 9999 FEW033 18/14 Q1012 NOSIG
  • 212020Z 32003KT 290V010 9999 FEW033CB 18/15 Q1012 RETS NOSIG
  • 211950Z 29003KT 260V070 9999 TS SCT033CB 18/15 Q1012 TEMPO 3000 SHRA TSRA

TAF TAF EBCI
Valid from the 21 at 18:00 until the 23 at 00:00 UTC


211700Z 2118/2224 07007KT 9999 FEW040TCU
PROB30
TEMPO 2118/2123 VRB15G25KT 3000 SHRA TSRAGS
TEMPO 2203/2206 4000 BR
PROB40
TEMPO 2212/2223 VRB18G30KT 1500 SHRA TSRAGR
No reported NOTAMs for that airfield.



MET'MAP, your aeronautical weather chart ! - Copyright ORBIFLY December 2007 - Disclaimer

ORBIFLY MET'MAP TEAM :

Programming & Development : Alexandra Zaïnal
Concept & Development : Baudouin d'Aumeries
Co-Development & Prog : Marc-Olivier Méhu
Technical & hardware support : Manuel Goepfert

Contact : metmap@orbifly.com




SOURCES & CREDITS :

   NOAA